Time;durP1;ratioP1;P1;durP2;ratioP2;P2;SDS_P1;SDS_P2;PMS_P1;PMS_P2;Temp;Humidity;BMP_temperature;BMP_pressure;BME280_temperature;BME280_humidity;BME280_pressure;Samples;Min_cycle;Max_cycle;Signal;HPM_P1;HPM_P2
2023/06/02 00:00:47;;;;;;;1999.90;999.90;;;12.00;99.90;;;;;;5063920;28;20579;-72
2023/06/02 00:03:15;;;;;;;1999.90;999.90;;;12.00;99.90;;;;;;5059086;28;20460;-71
2023/06/02 00:05:44;;;;;;;1999.90;999.90;;;12.10;99.90;;;;;;5063307;28;20883;-71
2023/06/02 00:08:11;;;;;;;1999.90;999.90;;;12.10;99.90;;;;;;5067888;28;20945;-71
2023/06/02 00:10:38;;;;;;;1999.90;999.90;;;12.10;99.90;;;;;;5065232;28;20921;-71
2023/06/02 00:13:07;;;;;;;1999.90;999.90;;;12.00;99.90;;;;;;5063377;28;20431;-72
2023/06/02 00:15:34;;;;;;;1999.90;999.90;;;11.90;99.90;;;;;;5068380;28;20443;-72
2023/06/02 00:18:01;;;;;;;1999.90;999.90;;;11.90;99.90;;;;;;5068210;28;20485;-72
2023/06/02 00:20:31;;;;;;;1999.90;999.90;;;11.90;99.90;;;;;;5068361;28;20435;-68
2023/06/02 00:22:58;;;;;;;1999.90;999.90;;;11.90;99.90;;;;;;5062548;28;20431;-72
2023/06/02 00:25:24;;;;;;;1999.90;999.90;;;11.90;99.90;;;;;;5068576;28;20439;-70
2023/06/02 00:27:51;;;;;;;1999.90;999.90;;;11.80;99.90;;;;;;5067387;28;20435;-70
2023/06/02 00:30:18;;;;;;;1999.90;999.90;;;11.80;99.90;;;;;;5067919;28;20920;-70
2023/06/02 00:32:45;;;;;;;1999.90;999.90;;;11.80;99.90;;;;;;5067705;28;21022;-71
2023/06/02 00:35:11;;;;;;;1999.90;999.90;;;11.90;99.90;;;;;;5061556;28;20547;-70
2023/06/02 00:37:39;;;;;;;1999.90;999.90;;;12.00;99.90;;;;;;5058846;28;20844;-71
2023/06/02 00:40:08;;;;;;;1999.90;999.90;;;11.90;99.90;;;;;;5063578;28;20436;-72
2023/06/02 00:42:35;;;;;;;1999.90;999.90;;;11.80;99.90;;;;;;5068254;28;20424;-72
2023/06/02 00:45:02;;;;;;;1999.90;999.90;;;11.80;99.90;;;;;;5065329;28;20427;-71
2023/06/02 00:47:29;;;;;;;1999.90;999.90;;;11.70;99.90;;;;;;5064119;28;20801;-72
2023/06/02 00:49:55;;;;;;;1999.90;999.90;;;11.70;99.90;;;;;;5063528;28;20443;-72
2023/06/02 00:52:23;;;;;;;1999.90;999.90;;;11.50;99.90;;;;;;5068334;28;20439;-72
2023/06/02 00:54:51;;;;;;;1999.90;999.90;;;11.40;99.90;;;;;;5067143;28;20435;-73
2023/06/02 00:57:18;;;;;;;1999.90;999.90;;;11.40;99.90;;;;;;5066593;28;20437;-70
2023/06/02 00:59:45;;;;;;;1999.90;999.90;;;11.40;99.90;;;;;;5059441;28;20427;-71
2023/06/02 01:02:13;;;;;;;1999.90;999.90;;;11.40;99.90;;;;;;5062489;28;20427;-70
2023/06/02 01:04:41;;;;;;;1999.90;999.90;;;11.30;99.90;;;;;;5058116;28;20487;-71
2023/06/02 01:07:10;;;;;;;1999.90;999.90;;;11.40;99.90;;;;;;5060154;28;20435;-71
2023/06/02 01:09:37;;;;;;;1999.90;999.90;;;11.40;99.90;;;;;;5064765;28;20514;-71
2023/06/02 01:12:06;;;;;;;1999.90;999.90;;;11.40;99.90;;;;;;5061675;28;21016;-71
2023/06/02 01:14:32;;;;;;;1999.90;999.90;;;11.30;99.90;;;;;;5052783;28;20433;-71
2023/06/02 01:16:59;;;;;;;1999.90;999.90;;;11.30;99.90;;;;;;5067110;28;20500;-69
2023/06/02 01:19:28;;;;;;;1999.90;999.90;;;11.30;99.90;;;;;;5066780;28;20507;-71
2023/06/02 01:22:01;;;;;;;1999.90;999.90;;;11.30;99.90;;;;;;5061065;28;20436;-73
2023/06/02 01:24:37;;;;;;;1999.90;999.90;;;11.20;99.90;;;;;;5069172;28;20431;-72
2023/06/02 01:27:06;;;;;;;1999.90;999.90;;;11.10;99.90;;;;;;5064282;28;20435;-71
2023/06/02 01:29:35;;;;;;;1999.90;999.90;;;11.20;99.90;;;;;;5069608;28;20439;-69
2023/06/02 01:32:05;;;;;;;1999.90;999.90;;;11.30;99.90;;;;;;5067138;28;20473;-71
2023/06/02 01:34:37;;;;;;;1999.90;999.90;;;11.30;99.90;;;;;;5065367;28;20518;-72
2023/06/02 01:37:05;;;;;;;1999.90;999.90;;;11.30;99.90;;;;;;5069255;28;20432;-71
2023/06/02 01:39:34;;;;;;;1999.90;999.90;;;11.40;99.90;;;;;;5071060;28;20432;-72
2023/06/02 01:42:02;;;;;;;1999.90;999.90;;;11.40;99.90;;;;;;5067095;28;20780;-72
2023/06/02 01:44:31;;;;;;;1999.90;999.90;;;11.40;99.90;;;;;;5068518;28;20985;-70
2023/06/02 01:46:58;;;;;;;1999.90;999.90;;;11.40;99.90;;;;;;5070932;28;21156;-72
2023/06/02 01:49:25;;;;;;;1999.90;999.90;;;11.40;99.90;;;;;;5070940;28;20905;-72
2023/06/02 01:51:53;;;;;;;1999.90;999.90;;;11.30;99.90;;;;;;5069894;28;20435;-70
2023/06/02 01:54:20;;;;;;;1999.90;999.90;;;11.30;99.90;;;;;;5067548;28;20439;-71
2023/06/02 01:56:48;;;;;;;1999.90;999.90;;;11.40;99.90;;;;;;5069057;28;20451;-72
2023/06/02 01:59:16;;;;;;;1999.90;999.90;;;11.40;99.90;;;;;;5069089;28;20435;-72
2023/06/02 02:01:44;;;;;;;1999.90;999.90;;;11.30;99.90;;;;;;5070527;28;20545;-73
2023/06/02 02:04:11;;;;;;;1999.90;999.90;;;11.30;99.90;;;;;;5070431;28;20424;-70
2023/06/02 02:06:39;;;;;;;1999.90;999.90;;;11.20;99.90;;;;;;5069680;28;20431;-72
2023/06/02 02:09:07;;;;;;;1999.90;999.90;;;11.30;99.90;;;;;;5069195;28;20427;-73
2023/06/02 02:11:34;;;;;;;1999.90;999.90;;;11.40;99.90;;;;;;5069915;28;20884;-72
2023/06/02 02:14:04;;;;;;;1999.90;999.90;;;11.30;99.90;;;;;;5070473;28;20488;-72
2023/06/02 02:16:31;;;;;;;1999.90;999.90;;;11.20;99.90;;;;;;5070050;28;20432;-72
2023/06/02 02:18:59;;;;;;;1999.90;999.90;;;11.20;99.90;;;;;;5068696;28;20489;-71
2023/06/02 02:21:25;;;;;;;1999.90;999.90;;;11.10;99.90;;;;;;5069616;28;20783;-71
2023/06/02 02:23:52;;;;;;;1999.90;999.90;;;11.10;99.90;;;;;;5070176;28;20427;-71
2023/06/02 02:26:19;;;;;;;1999.90;999.90;;;11.00;99.90;;;;;;5070286;28;20427;-71
2023/06/02 02:28:46;;;;;;;1999.90;999.90;;;11.00;99.90;;;;;;5068074;28;20427;-71
2023/06/02 02:31:14;;;;;;;1999.90;999.90;;;11.10;99.90;;;;;;5068462;28;20433;-71
2023/06/02 02:33:41;;;;;;;1999.90;999.90;;;11.10;99.90;;;;;;5069658;28;20502;-72
2023/06/02 02:36:08;;;;;;;1999.90;999.90;;;11.00;99.90;;;;;;5069880;28;20436;-71
2023/06/02 02:38:35;;;;;;;1999.90;999.90;;;11.10;99.90;;;;;;5068884;28;20508;-70
2023/06/02 02:41:01;;;;;;;1999.90;999.90;;;11.10;99.90;;;;;;5068497;28;20496;-71
2023/06/02 02:43:28;;;;;;;1999.90;999.90;;;11.10;99.90;;;;;;5061323;28;20424;-71
2023/06/02 02:45:54;;;;;;;1999.90;999.90;;;11.00;99.90;;;;;;5070044;28;20435;-71
2023/06/02 02:48:22;;;;;;;1999.90;999.90;;;11.00;99.90;;;;;;5067592;28;20431;-72
2023/06/02 02:50:50;;;;;;;1999.90;999.90;;;11.00;99.90;;;;;;5062260;28;20435;-72
2023/06/02 02:53:17;;;;;;;1999.90;999.90;;;11.10;99.90;;;;;;5059009;28;21094;-71
2023/06/02 02:55:44;;;;;;;1999.90;999.90;;;11.10;99.90;;;;;;5068156;28;20431;-71
2023/06/02 02:58:10;;;;;;;1999.90;999.90;;;11.20;99.90;;;;;;5068492;28;21471;-72
2023/06/02 03:00:37;;;;;;;1999.90;999.90;;;11.10;99.90;;;;;;5064251;28;20481;-71
2023/06/02 03:03:05;;;;;;;1999.90;999.90;;;11.30;99.90;;;;;;5059398;28;20425;-72
2023/06/02 03:05:34;;;;;;;1999.90;999.90;;;11.30;99.90;;;;;;5067728;28;20810;-71
2023/06/02 03:08:02;;;;;;;1999.90;999.90;;;11.30;99.90;;;;;;5068743;28;20457;-71
2023/06/02 03:10:29;;;;;;;1999.90;999.90;;;11.40;99.90;;;;;;5068972;28;20427;-71
2023/06/02 03:12:56;;;;;;;1999.90;999.90;;;11.40;99.90;;;;;;5065360;28;20945;-72
2023/06/02 03:15:22;;;;;;;1999.90;999.90;;;11.40;99.90;;;;;;5062323;28;20437;-69
2023/06/02 03:17:50;;;;;;;1999.90;999.90;;;11.50;99.90;;;;;;5068622;28;20435;-70
2023/06/02 03:20:17;;;;;;;1999.90;999.90;;;11.50;99.90;;;;;;5068308;28;20431;-70
2023/06/02 03:22:45;;;;;;;1999.90;999.90;;;11.30;99.90;;;;;;5068142;28;20427;-70
2023/06/02 03:25:12;;;;;;;1999.90;999.90;;;11.30;99.90;;;;;;5068483;28;20427;-71
2023/06/02 03:27:38;;;;;;;1999.90;999.90;;;11.30;99.90;;;;;;5068917;28;20497;-70
2023/06/02 03:30:07;;;;;;;1999.90;999.90;;;11.30;99.90;;;;;;5068672;28;20928;-71
2023/06/02 03:32:34;;;;;;;1999.90;999.90;;;11.30;99.90;;;;;;5068001;28;20443;-70
2023/06/02 03:35:01;;;;;;;1999.90;999.90;;;11.20;99.90;;;;;;5058886;28;20526;-70
2023/06/02 03:37:27;;;;;;;1999.90;999.90;;;11.20;99.90;;;;;;5067751;28;20794;-71
2023/06/02 03:39:55;;;;;;;1999.90;999.90;;;11.30;99.90;;;;;;5068336;28;20439;-71
2023/06/02 03:42:22;;;;;;;1999.90;999.90;;;11.30;99.90;;;;;;5068135;28;20481;-70
2023/06/02 03:44:49;;;;;;;1999.90;999.90;;;11.30;99.90;;;;;;5068704;28;20738;-70
2023/06/02 03:47:15;;;;;;;1999.90;999.90;;;11.30;99.90;;;;;;5060480;28;20501;-71
2023/06/02 03:49:42;;;;;;;1999.90;999.90;;;11.30;99.90;;;;;;5059905;28;20435;-70
2023/06/02 03:52:08;;;;;;;1999.90;999.90;;;11.30;99.90;;;;;;5067969;28;20848;-70
2023/06/02 03:54:35;;;;;;;1999.90;999.90;;;11.30;99.90;;;;;;5068218;28;21133;-71
2023/06/02 03:57:03;;;;;;;1999.90;999.90;;;11.30;99.90;;;;;;5068279;28;20481;-72
2023/06/02 03:59:30;;;;;;;1999.90;999.90;;;11.20;99.90;;;;;;5056204;28;20436;-74
2023/06/02 04:01:57;;;;;;;1999.90;999.90;;;11.10;99.90;;;;;;5067277;28;20435;-70
2023/06/02 04:04:23;;;;;;;1999.90;999.90;;;11.00;99.90;;;;;;5068577;28;20431;-71
2023/06/02 04:06:50;;;;;;;1999.90;999.90;;;11.00;99.90;;;;;;5068224;28;20924;-71
2023/06/02 04:09:17;;;;;;;1999.90;999.90;;;11.10;99.90;;;;;;5068147;28;20459;-70
2023/06/02 04:11:44;;;;;;;1999.90;999.90;;;11.20;99.90;;;;;;5066379;28;20438;-70
2023/06/02 04:14:13;;;;;;;1999.90;999.90;;;11.20;99.90;;;;;;5059823;28;20431;-72
2023/06/02 04:16:39;;;;;;;1999.90;999.90;;;11.20;99.90;;;;;;5068874;28;20431;-72
2023/06/02 04:19:06;;;;;;;1999.90;999.90;;;11.40;99.90;;;;;;5067722;28;20461;-71
2023/06/02 04:21:33;;;;;;;1999.90;999.90;;;11.40;99.90;;;;;;5067323;28;20427;-73
2023/06/02 04:23:59;;;;;;;1999.90;999.90;;;11.40;99.90;;;;;;5057258;28;20482;-74
2023/06/02 04:26:26;;;;;;;1999.90;999.90;;;11.40;99.90;;;;;;5058141;28;20429;-74
2023/06/02 04:28:53;;;;;;;1999.90;999.90;;;11.50;99.90;;;;;;5067465;28;20431;-74
2023/06/02 04:31:28;;;;;;;1999.90;999.90;;;11.70;99.90;;;;;;5067321;28;20432;-74
2023/06/02 04:33:55;;;;;;;1999.90;999.90;;;11.90;99.90;;;;;;5065778;28;20567;-70
2023/06/02 04:36:21;;;;;;;1999.90;999.90;;;11.80;99.90;;;;;;5061162;28;20433;-71
2023/06/02 04:38:48;;;;;;;1999.90;999.90;;;11.80;99.90;;;;;;5066998;28;20466;-70
2023/06/02 04:41:15;;;;;;;1999.90;999.90;;;11.70;99.90;;;;;;5068067;28;20431;-70
2023/06/02 04:43:42;;;;;;;1999.90;999.90;;;11.70;99.90;;;;;;5068164;28;20423;-71
2023/06/02 04:46:10;;;;;;;1999.90;999.90;;;11.70;99.90;;;;;;5064427;28;20489;-69
2023/06/02 04:48:40;;;;;;;1999.90;999.90;;;11.70;99.90;;;;;;5059394;28;20923;-72
2023/06/02 04:51:07;;;;;;;1999.90;999.90;;;11.90;99.90;;;;;;5067621;28;20502;-71
2023/06/02 04:53:34;;;;;;;1999.90;999.90;;;11.80;99.90;;;;;;5067835;28;20438;-72
2023/06/02 04:56:01;;;;;;;1999.90;999.90;;;11.80;99.90;;;;;;5067449;28;20435;-72
2023/06/02 04:58:27;;;;;;;1999.90;999.90;;;11.80;99.90;;;;;;5064993;28;20431;-72
2023/06/02 05:00:54;;;;;;;1999.90;999.90;;;11.70;99.90;;;;;;5065267;28;20431;-72
2023/06/02 05:03:21;;;;;;;1999.90;999.90;;;11.60;99.90;;;;;;5071804;28;20511;-72
2023/06/02 05:05:49;;;;;;;1999.90;999.90;;;11.70;99.90;;;;;;5070675;28;20431;-71
2023/06/02 05:08:16;;;;;;;1999.90;999.90;;;11.60;99.90;;;;;;5064206;28;20435;-71
2023/06/02 05:10:43;;;;;;;1999.90;999.90;;;11.60;99.90;;;;;;5068924;28;20967;-72
2023/06/02 05:13:09;;;;;;;1999.90;999.90;;;11.70;99.90;;;;;;5069035;28;20476;-72
2023/06/02 05:15:36;;;;;;;1999.90;999.90;;;11.90;99.90;;;;;;5070817;28;20427;-72
2023/06/02 05:18:03;;;;;;;1999.90;999.90;;;12.00;99.90;;;;;;5070965;28;20527;-72
2023/06/02 05:20:30;;;;;;;1999.90;999.90;;;12.00;99.90;;;;;;5057288;28;20433;-72
2023/06/02 05:22:58;;;;;;;1999.90;999.90;;;11.90;99.90;;;;;;5068851;28;20437;-72
2023/06/02 05:25:24;;;;;;;1999.90;999.90;;;12.00;99.90;;;;;;5066421;28;20498;-72
2023/06/02 05:27:51;;;;;;;1999.90;999.90;;;12.10;99.90;;;;;;5069940;28;21067;-70
2023/06/02 05:30:17;;;;;;;1999.90;999.90;;;12.20;99.90;;;;;;5070611;28;20472;-73
2023/06/02 05:32:44;;;;;;;1999.90;999.90;;;12.10;99.90;;;;;;5068694;28;20435;-72
2023/06/02 05:35:11;;;;;;;1999.90;999.90;;;12.30;99.90;;;;;;5112254;22;20502;-71
2023/06/02 05:37:38;;;;;;;1999.90;999.90;;;12.40;99.90;;;;;;5110379;27;20424;-73
2023/06/02 05:40:07;;;;;;;1999.90;999.90;;;12.60;99.90;;;;;;5110555;28;20467;-73
2023/06/02 05:42:33;;;;;;;1999.90;999.90;;;12.70;99.90;;;;;;5106515;28;20436;-72
2023/06/02 05:45:02;;;;;;;1999.90;999.90;;;12.60;99.90;;;;;;5090438;28;20421;-74
2023/06/02 05:47:30;;;;;;;1999.90;999.90;;;12.60;99.90;;;;;;5075369;28;20431;-74
2023/06/02 05:49:56;;;;;;;1999.90;999.90;;;12.60;99.90;;;;;;5089089;28;20465;-72
2023/06/02 05:52:23;;;;;;;1999.90;999.90;;;12.80;99.90;;;;;;5088119;28;20432;-74
2023/06/02 05:54:50;;;;;;;1999.90;999.90;;;12.70;99.90;;;;;;5087404;28;20479;-73
2023/06/02 05:57:18;;;;;;;1999.90;999.90;;;12.90;99.90;;;;;;5082726;28;20421;-74
2023/06/02 05:59:45;;;;;;;1999.90;999.90;;;13.00;99.90;;;;;;5088229;28;20446;-73
2023/06/02 06:02:12;;;;;;;1999.90;999.90;;;13.10;99.90;;;;;;5087655;28;20477;-74
2023/06/02 06:04:39;;;;;;;1999.90;999.90;;;13.30;99.90;;;;;;5088795;28;20447;-74
2023/06/02 06:07:07;;;;;;;1999.90;999.90;;;13.60;99.90;;;;;;5093203;28;20429;-74
2023/06/02 06:09:34;;;;;;;1999.90;999.90;;;13.70;99.90;;;;;;5091591;28;20433;-73
2023/06/02 06:12:00;;;;;;;1999.90;999.90;;;13.90;99.90;;;;;;5091795;28;20830;-73
2023/06/02 06:14:28;;;;;;;1999.90;999.90;;;13.90;99.90;;;;;;5084393;28;20913;-73
2023/06/02 06:16:55;;;;;;;1999.90;999.90;;;13.80;99.90;;;;;;5090190;28;20434;-72
2023/06/02 06:19:21;;;;;;;1999.90;999.90;;;13.80;99.90;;;;;;5091153;28;20426;-74
2023/06/02 06:21:48;;;;;;;1999.90;999.90;;;13.60;99.90;;;;;;5088004;28;20456;-74
2023/06/02 06:24:15;;;;;;;1999.90;999.90;;;13.60;99.90;;;;;;5084649;28;20491;-73
2023/06/02 06:26:42;;;;;;;1999.90;999.90;;;13.70;99.90;;;;;;5088999;28;20425;-73
2023/06/02 06:29:08;;;;;;;1999.90;999.90;;;13.70;99.90;;;;;;5090118;28;20526;-73
2023/06/02 06:31:36;;;;;;;1999.90;999.90;;;13.90;99.90;;;;;;5088304;28;20430;-72
2023/06/02 06:34:04;;;;;;;1999.90;999.90;;;14.30;99.90;;;;;;5088282;28;20505;-74
2023/06/02 06:36:33;;;;;;;1999.90;999.90;;;14.60;99.90;;;;;;5089827;28;20438;-74
2023/06/02 06:39:00;;;;;;;1999.90;999.90;;;14.60;99.90;;;;;;5088389;28;20504;-73
2023/06/02 06:41:27;;;;;;;1999.90;999.90;;;14.80;99.90;;;;;;5088571;28;20430;-73
2023/06/02 06:43:54;;;;;;;1999.90;999.90;;;15.30;99.90;;;;;;5085770;28;20426;-73
2023/06/02 06:46:20;;;;;;;1999.90;999.90;;;15.00;99.90;;;;;;5084995;28;20832;-73
2023/06/02 06:48:48;;;;;;;1999.90;999.90;;;14.70;99.90;;;;;;5086183;28;20429;-73
2023/06/02 06:51:15;;;;;;;1999.90;999.90;;;14.30;99.90;;;;;;5083826;28;20436;-71
2023/06/02 06:53:42;;;;;;;1999.90;999.90;;;14.10;99.90;;;;;;5087941;28;20671;-73
2023/06/02 06:56:09;;;;;;;1999.90;999.90;;;14.00;99.90;;;;;;5082329;28;20920;-73
2023/06/02 06:58:36;;;;;;;1999.90;999.90;;;14.00;99.90;;;;;;5083115;28;20926;-73
2023/06/02 07:01:02;;;;;;;1999.90;999.90;;;13.80;99.90;;;;;;5088411;28;20441;-74
2023/06/02 07:03:29;;;;;;;1999.90;999.90;;;13.80;99.90;;;;;;5084283;28;20460;-74
2023/06/02 07:05:57;;;;;;;1999.90;999.90;;;13.80;99.90;;;;;;5090799;28;20508;-73
2023/06/02 07:08:24;;;;;;;1999.90;999.90;;;13.60;99.90;;;;;;5087331;28;20427;-73
2023/06/02 07:10:50;;;;;;;1999.90;999.90;;;13.50;99.90;;;;;;5087022;28;20410;-74
2023/06/02 07:13:18;;;;;;;1999.90;999.90;;;13.50;99.90;;;;;;5091813;28;20418;-73
2023/06/02 07:15:45;;;;;;;1999.90;999.90;;;13.50;99.90;;;;;;5081818;28;20493;-73
2023/06/02 07:18:12;;;;;;;1999.90;999.90;;;13.60;99.90;;;;;;5071738;28;20971;-73
2023/06/02 07:20:38;;;;;;;1999.90;999.90;;;13.70;99.90;;;;;;5070783;28;20424;-73
2023/06/02 07:23:06;;;;;;;1999.90;999.90;;;13.90;99.90;;;;;;5070541;28;20943;-73
2023/06/02 07:25:34;;;;;;;1999.90;999.90;;;14.00;99.90;;;;;;5078962;28;20979;-74
2023/06/02 07:28:01;;;;;;;1999.90;999.90;;;13.80;99.90;;;;;;5080248;28;20462;-73
2023/06/02 07:30:27;;;;;;;1999.90;999.90;;;13.80;99.90;;;;;;5070508;28;20959;-74
2023/06/02 07:32:54;;;;;;;1999.90;999.90;;;14.00;99.90;;;;;;5070636;28;20415;-74
2023/06/02 07:35:20;;;;;;;1999.90;999.90;;;14.00;99.90;;;;;;5082247;28;20479;-74
2023/06/02 07:37:51;;;;;;;1999.90;999.90;;;14.10;99.90;;;;;;5079898;28;20435;-74
2023/06/02 07:40:19;;;;;;;1999.90;999.90;;;14.10;99.90;;;;;;5078789;28;20465;-73
2023/06/02 07:42:45;;;;;;;1999.90;999.90;;;14.30;99.90;;;;;;5071681;28;20427;-73
2023/06/02 07:45:12;;;;;;;1999.90;999.90;;;14.50;99.90;;;;;;5086794;28;20434;-73
2023/06/02 07:47:39;;;;;;;1999.90;999.90;;;14.40;99.90;;;;;;5084776;28;20433;-74
2023/06/02 07:50:06;;;;;;;1999.90;999.90;;;14.50;99.90;;;;;;5083664;28;20866;-73
2023/06/02 07:52:34;;;;;;;1999.90;999.90;;;14.50;99.90;;;;;;5086194;28;20416;-73
2023/06/02 07:55:00;;;;;;;1999.90;999.90;;;14.70;99.90;;;;;;5088898;28;20506;-74
2023/06/02 07:57:29;;;;;;;1999.90;999.90;;;15.00;99.90;;;;;;5087607;28;20483;-73
2023/06/02 07:59:55;;;;;;;1999.90;999.90;;;15.20;99.90;;;;;;5084964;28;20431;-74
2023/06/02 08:02:22;;;;;;;1999.90;999.90;;;15.10;99.90;;;;;;5085970;28;20486;-74
2023/06/02 08:04:49;;;;;;;1999.90;999.90;;;15.20;99.90;;;;;;5079230;28;20503;-73
2023/06/02 08:07:15;;;;;;;1999.90;999.90;;;15.00;99.90;;;;;;5083683;28;20426;-74
2023/06/02 08:09:42;;;;;;;1999.90;999.90;;;14.90;99.90;;;;;;5085432;28;20426;-74
2023/06/02 08:12:09;;;;;;;1999.90;999.90;;;15.10;99.90;;;;;;5087735;28;20426;-74
2023/06/02 08:14:37;;;;;;;1999.90;999.90;;;15.50;99.90;;;;;;5087978;28;20476;-72
2023/06/02 08:17:05;;;;;;;1999.90;999.90;;;15.90;99.90;;;;;;5086733;28;20425;-73
2023/06/02 08:19:31;;;;;;;1999.90;999.90;;;16.30;99.90;;;;;;5084953;28;20425;-73
2023/06/02 08:21:58;;;;;;;1999.90;999.90;;;16.60;99.90;;;;;;5089141;28;20425;-73
2023/06/02 08:24:26;;;;;;;1999.90;999.90;;;16.70;99.90;;;;;;5080433;28;21268;-73
2023/06/02 08:26:54;;;;;;;1999.90;999.90;;;16.30;99.90;;;;;;5086650;28;20830;-74
2023/06/02 08:29:22;;;;;;;1999.90;999.90;;;15.70;99.90;;;;;;5085927;28;20425;-73
2023/06/02 08:31:50;;;;;;;1999.90;999.90;;;15.70;99.90;;;;;;5086608;28;21004;-74
2023/06/02 08:34:20;;;;;;;1999.90;999.90;;;15.80;99.90;;;;;;5090781;28;20429;-73
2023/06/02 08:36:49;;;;;;;1999.90;999.90;;;16.00;99.90;;;;;;5085516;28;20913;-73
2023/06/02 08:39:16;;;;;;;1999.90;999.90;;;16.00;99.90;;;;;;5083396;28;20502;-72
2023/06/02 08:41:47;;;;;;;1999.90;999.90;;;16.00;99.90;;;;;;5091262;28;20505;-72
2023/06/02 08:44:14;;;;;;;1999.90;999.90;;;16.40;99.90;;;;;;5088500;28;21002;-72
2023/06/02 08:46:42;;;;;;;1999.90;999.90;;;16.80;99.90;;;;;;5087059;28;20926;-72
2023/06/02 08:49:15;;;;;;;1999.90;999.90;;;17.30;99.90;;;;;;5085455;28;20512;-73
2023/06/02 08:51:44;;;;;;;1999.90;999.90;;;17.60;99.90;;;;;;5086764;28;20414;-72
2023/06/02 08:54:11;;;;;;;1999.90;999.90;;;17.50;99.90;;;;;;5094779;28;20410;-73
2023/06/02 08:56:40;;;;;;;1999.90;999.90;;;17.00;99.90;;;;;;5094280;28;20984;-71
2023/06/02 08:59:07;;;;;;;1999.90;999.90;;;17.00;99.90;;;;;;5086953;28;20784;-73
2023/06/02 09:01:33;;;;;;;1999.90;999.90;;;16.80;99.90;;;;;;5095397;28;20451;-74
2023/06/02 09:04:00;;;;;;;1999.90;999.90;;;16.90;99.90;;;;;;5093954;28;20417;-71
2023/06/02 09:06:28;;;;;;;1999.90;999.90;;;16.70;99.90;;;;;;5088637;28;20497;-72
2023/06/02 09:08:57;;;;;;;1999.90;999.90;;;16.90;99.90;;;;;;5073048;28;20822;-71
2023/06/02 09:11:25;;;;;;;1999.90;999.90;;;17.10;99.90;;;;;;5074048;28;20496;-72
2023/06/02 09:13:52;;;;;;;1999.90;999.90;;;17.30;99.90;;;;;;5074321;28;20411;-72
2023/06/02 09:16:20;;;;;;;1999.90;999.90;;;17.60;99.90;;;;;;5082228;28;20438;-72
2023/06/02 09:18:57;;;;;;;1999.90;999.90;;;17.30;99.90;;;;;;5090517;28;20467;-73
2023/06/02 09:21:26;;;;;;;1999.90;999.90;;;17.50;99.90;;;;;;5090515;28;20429;-73
2023/06/02 09:23:56;;;;;;;1999.90;999.90;;;17.90;99.90;;;;;;5092839;28;20433;-73
2023/06/02 09:26:25;;;;;;;1999.90;999.90;;;17.70;99.90;;;;;;5091069;28;21205;-72
2023/06/02 09:29:02;;;;;;;1999.90;999.90;;;17.20;99.90;;;;;;5083048;28;20463;-72
2023/06/02 09:31:42;;;;;;;1999.90;999.90;;;17.10;99.90;;;;;;5084504;28;20417;-73
2023/06/02 09:34:08;;;;;;;1999.90;999.90;;;17.30;99.90;;;;;;5079839;28;20866;-72
2023/06/02 09:36:36;;;;;;;1999.90;999.90;;;17.80;99.90;;;;;;5092307;28;20484;-73
2023/06/02 09:39:04;;;;;;;1999.90;999.90;;;18.10;99.90;;;;;;5091947;28;20440;-72
2023/06/02 09:41:31;;;;;;;1999.90;999.90;;;18.20;99.90;;;;;;5087973;28;20426;-72
2023/06/02 09:43:58;;;;;;;1999.90;999.90;;;18.70;99.90;;;;;;5089002;28;20486;-74
2023/06/02 09:46:25;;;;;;;1999.90;999.90;;;19.20;99.90;;;;;;5080798;28;20418;-71
2023/06/02 09:48:55;;;;;;;1999.90;999.90;;;19.30;99.90;;;;;;5088339;28;20428;-73
2023/06/02 09:51:23;;;;;;;1999.90;999.90;;;18.90;99.90;;;;;;5090104;28;20848;-74
2023/06/02 09:53:51;;;;;;;1999.90;999.90;;;18.50;99.90;;;;;;5091491;28;20475;-72
2023/06/02 09:56:21;;;;;;;1999.90;999.90;;;18.10;99.90;;;;;;5090859;28;20465;-73
2023/06/02 09:58:47;;;;;;;1999.90;999.90;;;17.80;99.90;;;;;;5089326;28;20925;-72
2023/06/02 10:01:15;;;;;;;1999.90;999.90;;;17.60;99.90;;;;;;5081027;28;20422;-72
2023/06/02 10:03:42;;;;;;;1999.90;999.90;;;17.80;99.90;;;;;;5086452;28;20479;-73
2023/06/02 10:06:20;;;;;;;1999.90;999.90;;;17.90;99.90;;;;;;5087868;28;20468;-73
2023/06/02 10:09:00;;;;;;;1999.90;999.90;;;18.30;99.90;;;;;;5088974;28;20568;-73
2023/06/02 10:11:36;;;;;;;1999.90;999.90;;;18.60;99.90;;;;;;5091269;28;20429;-72
2023/06/02 10:14:18;;;;;;;1999.90;999.90;;;18.70;99.90;;;;;;5089324;28;20426;-72
2023/06/02 10:16:58;;;;;;;1999.90;999.90;;;18.40;99.90;;;;;;5083424;28;20418;-72
2023/06/02 10:19:53;;;;;;;1999.90;999.90;;;18.30;99.90;;;;;;5083927;28;20878;-73
2023/06/02 10:22:37;;;;;;;1999.90;999.90;;;18.00;99.90;;;;;;5093653;28;20432;-73
2023/06/02 10:25:16;;;;;;;1999.90;999.90;;;18.30;99.90;;;;;;5091419;28;20425;-73
2023/06/02 10:27:44;;;;;;;1999.90;999.90;;;18.60;99.90;;;;;;5081410;28;20483;-73
2023/06/02 10:30:11;;;;;;;1999.90;999.90;;;18.80;99.90;;;;;;5087381;28;20438;-73
2023/06/02 10:32:47;;;;;;;1999.90;999.90;;;18.60;99.90;;;;;;5087837;28;20432;-71
2023/06/02 10:35:15;;;;;;;1999.90;999.90;;;18.30;99.90;;;;;;5089734;28;20501;-72
2023/06/02 10:37:42;;;;;;;1999.90;999.90;;;18.50;99.90;;;;;;5091549;28;20439;-74
2023/06/02 10:40:10;;;;;;;1999.90;999.90;;;18.60;99.90;;;;;;5091162;28;20429;-73
2023/06/02 10:42:37;;;;;;;1999.90;999.90;;;18.60;99.90;;;;;;5096056;28;20416;-74
2023/06/02 10:45:41;;;;;;;1999.90;999.90;;;18.70;99.90;;;;;;5081457;28;20396;-72
2023/06/02 10:48:37;;;;;;;1999.90;999.90;;;18.60;99.90;;;;;;5077640;28;20416;-73
2023/06/02 10:51:04;;;;;;;1999.90;999.90;;;18.30;99.90;;;;;;5085400;28;20519;-73
2023/06/02 10:53:30;;;;;;;1999.90;999.90;;;18.50;99.90;;;;;;5088122;28;20430;-73
2023/06/02 10:55:57;;;;;;;1999.90;999.90;;;18.50;99.90;;;;;;5077133;28;20442;-73
2023/06/02 10:58:50;;;;;;;1999.90;999.90;;;18.60;99.90;;;;;;5072314;28;20408;-73
2023/06/02 11:01:46;;;;;;;1999.90;999.90;;;18.70;99.90;;;;;;5080142;28;20434;-73
2023/06/02 11:04:26;;;;;;;1999.90;999.90;;;19.00;99.90;;;;;;5088473;28;20462;-74
2023/06/02 11:07:22;;;;;;;1999.90;999.90;;;19.40;99.90;;;;;;5091867;28;20467;-74
2023/06/02 11:09:51;;;;;;;1999.90;999.90;;;19.50;99.90;;;;;;5089894;28;20430;-73
2023/06/02 11:12:18;;;;;;;1999.90;999.90;;;19.40;99.90;;;;;;5082646;28;20429;-72
2023/06/02 11:15:19;;;;;;;1999.90;999.90;;;19.10;99.90;;;;;;5084890;28;20493;-72
2023/06/02 11:17:48;;;;;;;1999.90;999.90;;;18.80;99.90;;;;;;5088309;28;20788;-72
2023/06/02 11:20:17;;;;;;;1999.90;999.90;;;18.60;99.90;;;;;;5082771;28;20437;-74
2023/06/02 11:22:44;;;;;;;1999.90;999.90;;;18.60;99.90;;;;;;5089739;28;20457;-72
2023/06/02 11:25:12;;;;;;;1999.90;999.90;;;18.30;99.90;;;;;;5089961;28;20437;-74
2023/06/02 11:27:43;;;;;;;1999.90;999.90;;;18.20;99.90;;;;;;5089517;28;20429;-73
2023/06/02 11:30:14;;;;;;;1999.90;999.90;;;18.30;99.90;;;;;;5087555;28;20454;-73
2023/06/02 11:32:40;;;;;;;1999.90;999.90;;;18.40;99.90;;;;;;5086525;28;20425;-73
2023/06/02 11:37:38;;;;;;;1999.90;999.90;;;19.00;99.90;;;;;;5072506;28;20421;-77
2023/06/02 11:40:07;;;;;;;1999.90;999.90;;;19.10;99.90;;;;;;5089480;28;20426;-75
2023/06/02 11:42:38;;;;;;;1999.90;999.90;;;18.90;99.90;;;;;;5088370;28;20480;-77
2023/06/02 11:45:06;;;;;;;1999.90;999.90;;;18.70;99.90;;;;;;5089952;28;20425;-74
2023/06/02 11:47:33;;;;;;;1999.90;999.90;;;18.80;99.90;;;;;;5069825;28;20419;-76
2023/06/02 11:50:00;;;;;;;1999.90;999.90;;;19.10;99.90;;;;;;5070098;28;20554;-75
2023/06/02 11:52:32;;;;;;;1999.90;999.90;;;19.10;99.90;;;;;;5070745;28;20420;-73
2023/06/02 11:55:00;;;;;;;1999.90;999.90;;;19.40;99.90;;;;;;5070006;28;20431;-73
2023/06/02 11:57:29;;;;;;;1999.90;999.90;;;19.30;99.90;;;;;;5069637;28;20411;-73
2023/06/02 12:00:09;;;;;;;1999.90;999.90;;;19.10;99.90;;;;;;5069794;28;20998;-73
2023/06/02 12:02:38;;;;;;;1999.90;999.90;;;19.00;99.90;;;;;;5070641;28;20415;-74
2023/06/02 12:05:09;;;;;;;1999.90;999.90;;;19.30;99.90;;;;;;5068777;28;20944;-73
2023/06/02 12:07:36;;;;;;;1999.90;999.90;;;19.30;99.90;;;;;;5069525;28;20451;-76